Aviation Digital Data Service (ADDS)

Output produced by METARs form (1210 UTC 22 March 2019)
found at http://www.aviationweather.gov/metar/data/
 
Forecast for: UTNN (NUKUS/KARAKALPAK, UZ)
Text: TAF UTNN 221100Z 2212/2312 27008G18KT CAVOK
Forecast period: 1200 UTC 22 March 2019 to 1200 UTC 23 March 2019
Forecast type: FROM: standard forecast or significant change
Winds: from the W (270 degrees) at 9 MPH (8 knots; 4.1 m/s)
gusting to 21 MPH (18 knots; 9.3 m/s)
Visibility: 6 or more miles 10+ km)
Ceiling: unknown
Clouds: missing
Weather: NSW  (no significant weather)
Text: TEMPO 2212/2216 22010G20KT
Forecast period: 1200 to 1600 UTC 22 March 2019
Forecast type: TEMPORARY: The following changes expected for less than half the time period
Winds: from the SW (220 degrees) at 12 MPH (10 knots; 5.1 m/s)
gusting to 23 MPH (20 knots; 10.3 m/s)
Visibility: missing
Ceiling: unknown
Clouds: missing
Weather: no significant weather forecast for this period